Grandview, Washington
Current Conditions -  °F | °C
As of 4:53 AM on Friday 31 Oct 2014 (Local Time) from KYKM Reporting Station
Light Rain Light Rain  
Wind Chill: 52°   Ceiling: 500
Heat Index: 52°   Visibility: 5mi
Dew Point: 51°   Wind: 0mph
Humidity: 97%   Direction: NA
Pressure: 29.74"   Gusts: NA
Location:  46.26°N, 119.9°W
Report Text: KYKM 311153Z AUTO 00000KT 5SM -RA BR BKN005 BKN014 OVC075 11/11 A2974 RMK AO2 SLP070 P0002 60019 70029 T01110106 10117 20111 58010
Loading
Personal Weather Stations






























Interactive Weather Map
Tropical Storm Tracking
New forecast layout! Learn more

10-Day Weather Forecast

Advertisements
Track Severe Weather on mobile